This is the latest recevied weather packets stored in our database for station/object AC4AG. If no packets are shown the sender has not sent any weather packets the latest 1 day(s).
| Time | Temp. | Humidity | Pressure | Rain* | Wind** | Luminosity | Snow |
|---|---|---|---|---|---|---|---|
| 1778054286 | 15.56° C | 93% | 1005.9 hPa | 0 mm | 0.89 m/s, 169° | 0 W/m² | - |
| 1778053983 | 15.56° C | 93% | 1006.1 hPa | 0 mm | 0.45 m/s, 171° | 0 W/m² | - |
| 1778053680 | 15.56° C | 93% | 1006.1 hPa | 1.27 mm | 0.89 m/s, 188° | 0 W/m² | - |
| 1778053377 | 15.56° C | 92% | 1006.1 hPa | 1.27 mm | 1.34 m/s, 197° | 0 W/m² | - |
| 1778053074 | 15.56° C | 93% | 1005.8 hPa | 0 mm | 1.34 m/s, 188° | 0 W/m² | - |
| 1778052772 | 15.56° C | 92% | 1005.9 hPa | 0 mm | 1.79 m/s, 185° | 0 W/m² | - |
| 1778052469 | 15.56° C | 91% | 1006.2 hPa | 1.78 mm | 1.34 m/s, 130° | 0 W/m² | - |
| 1778052166 | 16.11° C | 90% | 1005.9 hPa | 1.78 mm | 0.89 m/s, 164° | 0 W/m² | - |
| 1778051864 | 16.11° C | 89% | 1005.9 hPa | 1.78 mm | 1.34 m/s, 213° | 0 W/m² | - |
| 1778051562 | 16.11° C | 87% | 1005.9 hPa | 0 mm | 1.79 m/s, 169° | 0 W/m² | - |
| 1778051258 | 16.11° C | 87% | 1005.7 hPa | 0 mm | 2.24 m/s, 209° | 0 W/m² | - |
| 1778050955 | 16.11° C | 88% | 1005.9 hPa | 0 mm | 1.79 m/s, 212° | 0 W/m² | - |
| 1778050653 | 16.11° C | 89% | 1006 hPa | 0 mm | 1.34 m/s, 181° | 0 W/m² | - |
| 1778050350 | 16.11° C | 89% | 1006 hPa | 1.27 mm | 1.34 m/s, 183° | 0 W/m² | - |
| 1778050046 | 16.11° C | 88% | 1006.2 hPa | 1.27 mm | 2.24 m/s, 179° | 0 W/m² | - |
| 1778049742 | 16.67° C | 86% | 1006.3 hPa | 0 mm | 1.79 m/s, 176° | 0 W/m² | - |
| 1778049440 | 16.11° C | 86% | 1006.3 hPa | 0 mm | 3.13 m/s, 217° | 0 W/m² | - |
| 1778049137 | 16.11° C | 87% | 1006.4 hPa | 0 mm | 1.34 m/s, 175° | 0 W/m² | - |
| 1778048836 | 16.11° C | 87% | 1006.4 hPa | 0 mm | 1.34 m/s, 175° | 0 W/m² | - |
| 1778048532 | 16.11° C | 87% | 1006.3 hPa | 0 mm | 1.34 m/s, 140° | 0 W/m² | - |
| 1778048228 | 15.56° C | 88% | 1006.5 hPa | 0 mm | 1.34 m/s, 169° | 0 W/m² | - |
| 1778047926 | 15.56° C | 88% | 1006.5 hPa | 0 mm | 0.45 m/s, 145° | 0 W/m² | - |
| 1778047624 | 15.56° C | 89% | 1006.7 hPa | 0 mm | 2.24 m/s, 195° | 0 W/m² | - |
| 1778047321 | 15.56° C | 89% | 1007.1 hPa | 0 mm | 2.24 m/s, 184° | 0 W/m² | - |
| 1778047018 | 15.56° C | 89% | 1007 hPa | 0 mm | 2.24 m/s, 219° | 0 W/m² | - |
* Rain latest hour (hover to see other rain measurements)
** Current wind speed in m/s (hover to see current wind gust speed)